sensor_id;sensor_type;location;lat;lon;timestamp;P1;durP1;ratioP1;P2;durP2;ratioP2
46675;SDS011;32412;51.478;5.694;2022-07-29T00:00:38;10.40;;;2.92;;
46675;SDS011;32412;51.478;5.694;2022-07-29T00:03:04;26.27;;;5.03;;
46675;SDS011;32412;51.478;5.694;2022-07-29T00:05:29;18.60;;;4.85;;
46675;SDS011;32412;51.478;5.694;2022-07-29T00:08:01;18.90;;;5.25;;
46675;SDS011;32412;51.478;5.694;2022-07-29T00:10:33;17.23;;;4.93;;
46675;SDS011;32412;51.478;5.694;2022-07-29T00:12:59;18.17;;;4.82;;
46675;SDS011;32412;51.478;5.694;2022-07-29T00:15:25;15.43;;;4.35;;
46675;SDS011;32412;51.478;5.694;2022-07-29T00:17:51;7.10;;;3.60;;
46675;SDS011;32412;51.478;5.694;2022-07-29T00:20:17;11.88;;;3.70;;
46675;SDS011;32412;51.478;5.694;2022-07-29T00:22:43;11.88;;;3.70;;
46675;SDS011;32412;51.478;5.694;2022-07-29T00:25:08;11.93;;;4.25;;
46675;SDS011;32412;51.478;5.694;2022-07-29T00:27:35;9.00;;;4.88;;
46675;SDS011;32412;51.478;5.694;2022-07-29T00:30:08;7.70;;;4.78;;
46675;SDS011;32412;51.478;5.694;2022-07-29T00:32:34;9.82;;;4.70;;
46675;SDS011;32412;51.478;5.694;2022-07-29T00:35:00;9.95;;;5.40;;
46675;SDS011;32412;51.478;5.694;2022-07-29T00:37:44;7.15;;;5.05;;
46675;SDS011;32412;51.478;5.694;2022-07-29T00:40:12;11.13;;;4.70;;
46675;SDS011;32412;51.478;5.694;2022-07-29T00:42:42;8.88;;;4.63;;
46675;SDS011;32412;51.478;5.694;2022-07-29T00:45:09;8.48;;;4.55;;
46675;SDS011;32412;51.478;5.694;2022-07-29T00:47:35;10.32;;;5.00;;
46675;SDS011;32412;51.478;5.694;2022-07-29T00:50:01;9.57;;;4.80;;
46675;SDS011;32412;51.478;5.694;2022-07-29T00:52:29;9.70;;;5.78;;
46675;SDS011;32412;51.478;5.694;2022-07-29T00:54:55;6.97;;;4.45;;
46675;SDS011;32412;51.478;5.694;2022-07-29T00:57:21;6.53;;;4.75;;
46675;SDS011;32412;51.478;5.694;2022-07-29T00:59:47;8.50;;;4.28;;
46675;SDS011;32412;51.478;5.694;2022-07-29T01:02:13;6.00;;;3.50;;
46675;SDS011;32412;51.478;5.694;2022-07-29T01:04:38;7.90;;;3.95;;
46675;SDS011;32412;51.478;5.694;2022-07-29T01:07:08;6.68;;;4.07;;
46675;SDS011;32412;51.478;5.694;2022-07-29T01:09:34;10.68;;;5.00;;
46675;SDS011;32412;51.478;5.694;2022-07-29T01:12:02;7.93;;;5.80;;
46675;SDS011;32412;51.478;5.694;2022-07-29T01:14:29;11.68;;;5.75;;
46675;SDS011;32412;51.478;5.694;2022-07-29T01:16:59;11.35;;;5.80;;
46675;SDS011;32412;51.478;5.694;2022-07-29T01:19:44;10.52;;;6.50;;
46675;SDS011;32412;51.478;5.694;2022-07-29T01:30:18;9.52;;;5.78;;
46675;SDS011;32412;51.478;5.694;2022-07-29T01:32:56;11.00;;;6.13;;
46675;SDS011;32412;51.478;5.694;2022-07-29T01:36:07;8.45;;;5.68;;
46675;SDS011;32412;51.478;5.694;2022-07-29T01:38:42;9.13;;;5.22;;
46675;SDS011;32412;51.478;5.694;2022-07-29T01:41:26;7.88;;;4.82;;
46675;SDS011;32412;51.478;5.694;2022-07-29T01:43:58;8.30;;;5.47;;
46675;SDS011;32412;51.478;5.694;2022-07-29T01:46:34;9.38;;;5.50;;
46675;SDS011;32412;51.478;5.694;2022-07-29T01:49:14;9.95;;;5.97;;
46675;SDS011;32412;51.478;5.694;2022-07-29T01:51:44;13.70;;;6.88;;
46675;SDS011;32412;51.478;5.694;2022-07-29T01:54:16;10.98;;;7.35;;
46675;SDS011;32412;51.478;5.694;2022-07-29T01:57:00;11.63;;;8.60;;
46675;SDS011;32412;51.478;5.694;2022-07-29T01:59:28;15.82;;;8.20;;
46675;SDS011;32412;51.478;5.694;2022-07-29T02:01:57;10.32;;;7.07;;
46675;SDS011;32412;51.478;5.694;2022-07-29T02:04:27;10.70;;;7.25;;
46675;SDS011;32412;51.478;5.694;2022-07-29T02:06:54;13.57;;;7.03;;
46675;SDS011;32412;51.478;5.694;2022-07-29T02:09:25;7.10;;;5.85;;
46675;SDS011;32412;51.478;5.694;2022-07-29T02:11:53;6.80;;;5.40;;
46675;SDS011;32412;51.478;5.694;2022-07-29T02:14:26;8.18;;;5.88;;
46675;SDS011;32412;51.478;5.694;2022-07-29T02:16:58;10.35;;;5.63;;
46675;SDS011;32412;51.478;5.694;2022-07-29T02:19:26;7.70;;;5.68;;
46675;SDS011;32412;51.478;5.694;2022-07-29T02:21:57;8.15;;;5.90;;
46675;SDS011;32412;51.478;5.694;2022-07-29T02:24:25;10.45;;;6.30;;
46675;SDS011;32412;51.478;5.694;2022-07-29T02:26:56;10.98;;;5.72;;
46675;SDS011;32412;51.478;5.694;2022-07-29T02:29:25;5.82;;;5.25;;
46675;SDS011;32412;51.478;5.694;2022-07-29T02:31:51;7.93;;;5.53;;
46675;SDS011;32412;51.478;5.694;2022-07-29T02:34:19;10.45;;;5.35;;
46675;SDS011;32412;51.478;5.694;2022-07-29T02:36:46;9.70;;;5.30;;
46675;SDS011;32412;51.478;5.694;2022-07-29T02:39:15;10.90;;;5.47;;
46675;SDS011;32412;51.478;5.694;2022-07-29T02:41:54;13.35;;;6.32;;
46675;SDS011;32412;51.478;5.694;2022-07-29T02:44:28;10.82;;;6.68;;
46675;SDS011;32412;51.478;5.694;2022-07-29T02:50:09;8.68;;;5.97;;
46675;SDS011;32412;51.478;5.694;2022-07-29T02:52:44;11.18;;;6.25;;
46675;SDS011;32412;51.478;5.694;2022-07-29T02:55:23;9.63;;;6.13;;
46675;SDS011;32412;51.478;5.694;2022-07-29T03:00:36;7.97;;;5.63;;
46675;SDS011;32412;51.478;5.694;2022-07-29T03:03:05;11.88;;;5.88;;
46675;SDS011;32412;51.478;5.694;2022-07-29T03:05:35;7.47;;;6.30;;
46675;SDS011;32412;51.478;5.694;2022-07-29T03:08:03;8.90;;;6.05;;
46675;SDS011;32412;51.478;5.694;2022-07-29T03:10:30;10.07;;;6.72;;
46675;SDS011;32412;51.478;5.694;2022-07-29T03:12:57;9.63;;;6.85;;
46675;SDS011;32412;51.478;5.694;2022-07-29T03:15:23;10.45;;;6.55;;
46675;SDS011;32412;51.478;5.694;2022-07-29T03:17:53;13.52;;;5.97;;
46675;SDS011;32412;51.478;5.694;2022-07-29T03:20:20;9.18;;;5.63;;
46675;SDS011;32412;51.478;5.694;2022-07-29T03:22:46;10.52;;;6.05;;
46675;SDS011;32412;51.478;5.694;2022-07-29T03:25:13;8.57;;;5.55;;
46675;SDS011;32412;51.478;5.694;2022-07-29T03:27:40;9.05;;;6.32;;
46675;SDS011;32412;51.478;5.694;2022-07-29T03:30:10;8.60;;;6.65;;
46675;SDS011;32412;51.478;5.694;2022-07-29T03:32:37;9.50;;;6.85;;
46675;SDS011;32412;51.478;5.694;2022-07-29T03:41:51;8.13;;;6.57;;
46675;SDS011;32412;51.478;5.694;2022-07-29T03:44:22;13.63;;;7.57;;
46675;SDS011;32412;51.478;5.694;2022-07-29T03:46:54;11.30;;;6.72;;
46675;SDS011;32412;51.478;5.694;2022-07-29T03:49:23;8.80;;;6.35;;
46675;SDS011;32412;51.478;5.694;2022-07-29T03:51:54;8.02;;;6.68;;
46675;SDS011;32412;51.478;5.694;2022-07-29T03:54:23;8.00;;;6.25;;
46675;SDS011;32412;51.478;5.694;2022-07-29T03:56:49;11.10;;;7.63;;
46675;SDS011;32412;51.478;5.694;2022-07-29T03:59:17;10.07;;;6.80;;
46675;SDS011;32412;51.478;5.694;2022-07-29T04:01:44;10.90;;;7.20;;
46675;SDS011;32412;51.478;5.694;2022-07-29T04:04:11;12.70;;;6.78;;
46675;SDS011;32412;51.478;5.694;2022-07-29T04:06:40;7.80;;;6.97;;
46675;SDS011;32412;51.478;5.694;2022-07-29T04:09:08;11.23;;;8.55;;
46675;SDS011;32412;51.478;5.694;2022-07-29T04:11:35;15.70;;;8.80;;
46675;SDS011;32412;51.478;5.694;2022-07-29T04:14:02;13.65;;;8.70;;
46675;SDS011;32412;51.478;5.694;2022-07-29T04:16:27;12.05;;;8.20;;
46675;SDS011;32412;51.478;5.694;2022-07-29T04:18:53;13.40;;;8.48;;
46675;SDS011;32412;51.478;5.694;2022-07-29T04:21:19;13.65;;;9.75;;
46675;SDS011;32412;51.478;5.694;2022-07-29T04:23:44;13.45;;;8.75;;
46675;SDS011;32412;51.478;5.694;2022-07-29T04:26:14;13.88;;;8.55;;
46675;SDS011;32412;51.478;5.694;2022-07-29T04:28:40;9.70;;;8.70;;
46675;SDS011;32412;51.478;5.694;2022-07-29T04:31:07;13.63;;;8.50;;
46675;SDS011;32412;51.478;5.694;2022-07-29T04:33:33;12.45;;;8.77;;
46675;SDS011;32412;51.478;5.694;2022-07-29T04:36:01;11.75;;;9.13;;
46675;SDS011;32412;51.478;5.694;2022-07-29T04:38:27;13.02;;;8.40;;
46675;SDS011;32412;51.478;5.694;2022-07-29T04:40:53;12.25;;;9.32;;
46675;SDS011;32412;51.478;5.694;2022-07-29T04:43:18;12.30;;;9.13;;
46675;SDS011;32412;51.478;5.694;2022-07-29T04:45:44;15.73;;;10.48;;
46675;SDS011;32412;51.478;5.694;2022-07-29T04:48:10;12.73;;;11.35;;
46675;SDS011;32412;51.478;5.694;2022-07-29T04:50:37;15.23;;;10.52;;
46675;SDS011;32412;51.478;5.694;2022-07-29T04:53:07;12.90;;;10.75;;
46675;SDS011;32412;51.478;5.694;2022-07-29T04:55:33;13.75;;;9.63;;
46675;SDS011;32412;51.478;5.694;2022-07-29T04:57:58;15.43;;;9.15;;
46675;SDS011;32412;51.478;5.694;2022-07-29T05:00:24;13.73;;;9.20;;
46675;SDS011;32412;51.478;5.694;2022-07-29T05:02:53;14.15;;;10.25;;
46675;SDS011;32412;51.478;5.694;2022-07-29T05:05:19;14.52;;;9.98;;
46675;SDS011;32412;51.478;5.694;2022-07-29T05:07:48;15.35;;;10.40;;
46675;SDS011;32412;51.478;5.694;2022-07-29T05:10:14;13.27;;;10.13;;
46675;SDS011;32412;51.478;5.694;2022-07-29T05:12:39;13.50;;;9.52;;
46675;SDS011;32412;51.478;5.694;2022-07-29T05:15:05;13.45;;;10.20;;
46675;SDS011;32412;51.478;5.694;2022-07-29T05:17:31;11.10;;;9.57;;
46675;SDS011;32412;51.478;5.694;2022-07-29T05:19:57;10.57;;;9.35;;
46675;SDS011;32412;51.478;5.694;2022-07-29T05:22:22;14.02;;;10.55;;
46675;SDS011;32412;51.478;5.694;2022-07-29T05:24:48;13.70;;;9.65;;
46675;SDS011;32412;51.478;5.694;2022-07-29T05:27:14;15.95;;;10.07;;
46675;SDS011;32412;51.478;5.694;2022-07-29T05:29:39;11.32;;;9.88;;
46675;SDS011;32412;51.478;5.694;2022-07-29T05:32:05;14.45;;;10.60;;
46675;SDS011;32412;51.478;5.694;2022-07-29T05:34:31;13.90;;;10.88;;
46675;SDS011;32412;51.478;5.694;2022-07-29T05:36:57;14.80;;;10.43;;
46675;SDS011;32412;51.478;5.694;2022-07-29T05:39:23;14.40;;;10.77;;
46675;SDS011;32412;51.478;5.694;2022-07-29T05:41:49;14.23;;;10.27;;
46675;SDS011;32412;51.478;5.694;2022-07-29T05:44:14;12.40;;;10.07;;
46675;SDS011;32412;51.478;5.694;2022-07-29T05:46:40;17.08;;;9.77;;
46675;SDS011;32412;51.478;5.694;2022-07-29T05:49:06;16.52;;;10.27;;
46675;SDS011;32412;51.478;5.694;2022-07-29T05:51:35;14.27;;;9.27;;
46675;SDS011;32412;51.478;5.694;2022-07-29T05:54:01;12.48;;;9.77;;
46675;SDS011;32412;51.478;5.694;2022-07-29T05:56:29;13.20;;;10.25;;
46675;SDS011;32412;51.478;5.694;2022-07-29T05:58:55;13.65;;;11.05;;
46675;SDS011;32412;51.478;5.694;2022-07-29T06:01:20;15.90;;;9.90;;
46675;SDS011;32412;51.478;5.694;2022-07-29T06:03:46;13.20;;;10.80;;
46675;SDS011;32412;51.478;5.694;2022-07-29T06:06:12;11.88;;;10.68;;
46675;SDS011;32412;51.478;5.694;2022-07-29T06:08:38;11.90;;;10.25;;
46675;SDS011;32412;51.478;5.694;2022-07-29T06:11:05;12.40;;;11.05;;
46675;SDS011;32412;51.478;5.694;2022-07-29T06:13:31;15.00;;;11.65;;
46675;SDS011;32412;51.478;5.694;2022-07-29T06:16:00;18.75;;;12.23;;
46675;SDS011;32412;51.478;5.694;2022-07-29T06:18:26;17.23;;;12.30;;
46675;SDS011;32412;51.478;5.694;2022-07-29T06:20:54;14.48;;;11.43;;
46675;SDS011;32412;51.478;5.694;2022-07-29T06:23:20;19.13;;;11.70;;
46675;SDS011;32412;51.478;5.694;2022-07-29T06:25:46;14.23;;;11.70;;
46675;SDS011;32412;51.478;5.694;2022-07-29T06:28:12;16.70;;;11.85;;
46675;SDS011;32412;51.478;5.694;2022-07-29T06:30:38;14.85;;;11.43;;
46675;SDS011;32412;51.478;5.694;2022-07-29T06:33:04;16.05;;;11.55;;
46675;SDS011;32412;51.478;5.694;2022-07-29T06:35:30;17.02;;;11.88;;
46675;SDS011;32412;51.478;5.694;2022-07-29T06:37:58;17.15;;;10.82;;
46675;SDS011;32412;51.478;5.694;2022-07-29T06:40:23;13.57;;;10.55;;
46675;SDS011;32412;51.478;5.694;2022-07-29T06:43:07;14.52;;;11.73;;
46675;SDS011;32412;51.478;5.694;2022-07-29T06:45:33;14.15;;;9.75;;
46675;SDS011;32412;51.478;5.694;2022-07-29T06:47:59;23.58;;;11.93;;
46675;SDS011;32412;51.478;5.694;2022-07-29T06:50:24;12.55;;;10.55;;
46675;SDS011;32412;51.478;5.694;2022-07-29T06:52:50;17.48;;;11.18;;
46675;SDS011;32412;51.478;5.694;2022-07-29T06:55:16;15.55;;;11.00;;
46675;SDS011;32412;51.478;5.694;2022-07-29T06:57:44;17.05;;;11.43;;
46675;SDS011;32412;51.478;5.694;2022-07-29T07:00:10;15.30;;;10.77;;
46675;SDS011;32412;51.478;5.694;2022-07-29T07:02:36;13.27;;;11.30;;
46675;SDS011;32412;51.478;5.694;2022-07-29T07:05:02;13.52;;;11.43;;
46675;SDS011;32412;51.478;5.694;2022-07-29T07:07:27;13.90;;;11.73;;
46675;SDS011;32412;51.478;5.694;2022-07-29T07:09:53;16.42;;;12.00;;
46675;SDS011;32412;51.478;5.694;2022-07-29T07:12:19;18.90;;;11.63;;
46675;SDS011;32412;51.478;5.694;2022-07-29T07:14:44;15.43;;;11.80;;
46675;SDS011;32412;51.478;5.694;2022-07-29T07:17:10;14.70;;;11.52;;
46675;SDS011;32412;51.478;5.694;2022-07-29T07:19:36;15.07;;;11.25;;
46675;SDS011;32412;51.478;5.694;2022-07-29T07:22:01;14.18;;;11.25;;
46675;SDS011;32412;51.478;5.694;2022-07-29T07:24:27;15.40;;;11.25;;
46675;SDS011;32412;51.478;5.694;2022-07-29T07:26:52;14.27;;;10.25;;
46675;SDS011;32412;51.478;5.694;2022-07-29T07:29:18;17.90;;;11.02;;
46675;SDS011;32412;51.478;5.694;2022-07-29T07:31:44;13.82;;;10.02;;
46675;SDS011;32412;51.478;5.694;2022-07-29T07:34:10;14.80;;;9.85;;
46675;SDS011;32412;51.478;5.694;2022-07-29T07:39:58;11.02;;;8.48;;
46675;SDS011;32412;51.478;5.694;2022-07-29T07:42:24;10.10;;;9.10;;
46675;SDS011;32412;51.478;5.694;2022-07-29T07:44:50;13.48;;;9.25;;
46675;SDS011;32412;51.478;5.694;2022-07-29T07:47:16;12.98;;;9.32;;
46675;SDS011;32412;51.478;5.694;2022-07-29T07:49:45;10.75;;;9.15;;
46675;SDS011;32412;51.478;5.694;2022-07-29T07:52:13;11.63;;;9.27;;
46675;SDS011;32412;51.478;5.694;2022-07-29T07:54:40;12.27;;;9.90;;
46675;SDS011;32412;51.478;5.694;2022-07-29T07:57:07;16.35;;;9.68;;
46675;SDS011;32412;51.478;5.694;2022-07-29T07:59:33;25.55;;;18.33;;
46675;SDS011;32412;51.478;5.694;2022-07-29T08:01:59;31.38;;;23.92;;
46675;SDS011;32412;51.478;5.694;2022-07-29T08:04:25;22.73;;;17.17;;
46675;SDS011;32412;51.478;5.694;2022-07-29T08:06:51;16.45;;;13.85;;
46675;SDS011;32412;51.478;5.694;2022-07-29T08:09:20;10.98;;;8.68;;
46675;SDS011;32412;51.478;5.694;2022-07-29T08:12:31;13.02;;;9.55;;
46675;SDS011;32412;51.478;5.694;2022-07-29T08:14:57;9.68;;;8.52;;
46675;SDS011;32412;51.478;5.694;2022-07-29T08:17:22;14.13;;;10.43;;
46675;SDS011;32412;51.478;5.694;2022-07-29T08:19:48;11.20;;;9.15;;
46675;SDS011;32412;51.478;5.694;2022-07-29T08:22:17;10.50;;;9.20;;
46675;SDS011;32412;51.478;5.694;2022-07-29T08:24:46;10.55;;;7.60;;
46675;SDS011;32412;51.478;5.694;2022-07-29T08:29:43;14.27;;;8.85;;
46675;SDS011;32412;51.478;5.694;2022-07-29T08:32:09;11.57;;;7.60;;
46675;SDS011;32412;51.478;5.694;2022-07-29T08:34:37;9.55;;;7.88;;
46675;SDS011;32412;51.478;5.694;2022-07-29T08:37:03;7.80;;;7.00;;
46675;SDS011;32412;51.478;5.694;2022-07-29T08:39:29;9.48;;;7.57;;
46675;SDS011;32412;51.478;5.694;2022-07-29T08:41:57;8.18;;;6.95;;
46675;SDS011;32412;51.478;5.694;2022-07-29T08:44:23;9.98;;;6.88;;
46675;SDS011;32412;51.478;5.694;2022-07-29T08:46:49;10.88;;;7.70;;
46675;SDS011;32412;51.478;5.694;2022-07-29T08:49:15;8.38;;;7.20;;
46675;SDS011;32412;51.478;5.694;2022-07-29T08:51:42;8.73;;;7.13;;
46675;SDS011;32412;51.478;5.694;2022-07-29T08:54:09;10.27;;;7.63;;
46675;SDS011;32412;51.478;5.694;2022-07-29T08:56:35;10.07;;;8.25;;
46675;SDS011;32412;51.478;5.694;2022-07-29T08:59:03;9.05;;;7.22;;
46675;SDS011;32412;51.478;5.694;2022-07-29T09:01:30;10.43;;;7.32;;
46675;SDS011;32412;51.478;5.694;2022-07-29T09:03:58;9.65;;;8.27;;
46675;SDS011;32412;51.478;5.694;2022-07-29T09:06:26;12.90;;;7.68;;
46675;SDS011;32412;51.478;5.694;2022-07-29T09:08:57;12.40;;;8.65;;
46675;SDS011;32412;51.478;5.694;2022-07-29T09:11:31;11.77;;;8.32;;
46675;SDS011;32412;51.478;5.694;2022-07-29T09:13:58;10.10;;;6.78;;
46675;SDS011;32412;51.478;5.694;2022-07-29T09:16:23;10.45;;;6.90;;
46675;SDS011;32412;51.478;5.694;2022-07-29T09:18:49;8.05;;;6.85;;
46675;SDS011;32412;51.478;5.694;2022-07-29T09:21:16;11.82;;;7.07;;
46675;SDS011;32412;51.478;5.694;2022-07-29T09:24:05;8.43;;;6.55;;
46675;SDS011;32412;51.478;5.694;2022-07-29T09:26:33;7.85;;;6.03;;
46675;SDS011;32412;51.478;5.694;2022-07-29T09:29:07;10.68;;;6.25;;
46675;SDS011;32412;51.478;5.694;2022-07-29T09:31:42;8.50;;;6.18;;
46675;SDS011;32412;51.478;5.694;2022-07-29T09:34:16;8.77;;;6.72;;
46675;SDS011;32412;51.478;5.694;2022-07-29T09:36:51;6.40;;;5.80;;
46675;SDS011;32412;51.478;5.694;2022-07-29T09:39:31;18.80;;;12.13;;
46675;SDS011;32412;51.478;5.694;2022-07-29T09:42:03;7.32;;;6.63;;
46675;SDS011;32412;51.478;5.694;2022-07-29T09:44:50;7.55;;;6.57;;
46675;SDS011;32412;51.478;5.694;2022-07-29T09:47:16;6.57;;;5.47;;
46675;SDS011;32412;51.478;5.694;2022-07-29T09:49:50;8.48;;;6.20;;
46675;SDS011;32412;51.478;5.694;2022-07-29T09:52:26;11.13;;;5.57;;
46675;SDS011;32412;51.478;5.694;2022-07-29T09:55:02;8.18;;;6.43;;
46675;SDS011;32412;51.478;5.694;2022-07-29T09:57:32;13.48;;;5.78;;
46675;SDS011;32412;51.478;5.694;2022-07-29T10:00:03;6.25;;;5.35;;
46675;SDS011;32412;51.478;5.694;2022-07-29T10:02:33;8.10;;;5.55;;
46675;SDS011;32412;51.478;5.694;2022-07-29T10:05:01;6.82;;;5.30;;
46675;SDS011;32412;51.478;5.694;2022-07-29T10:07:47;9.90;;;5.38;;
46675;SDS011;32412;51.478;5.694;2022-07-29T10:12:56;7.22;;;5.20;;
46675;SDS011;32412;51.478;5.694;2022-07-29T10:15:31;5.57;;;4.95;;
46675;SDS011;32412;51.478;5.694;2022-07-29T10:18:05;7.95;;;5.25;;
46675;SDS011;32412;51.478;5.694;2022-07-29T10:20:32;7.88;;;4.95;;
46675;SDS011;32412;51.478;5.694;2022-07-29T10:22:58;7.25;;;4.75;;
46675;SDS011;32412;51.478;5.694;2022-07-29T10:25:24;7.72;;;4.60;;
46675;SDS011;32412;51.478;5.694;2022-07-29T10:27:51;5.13;;;4.35;;
46675;SDS011;32412;51.478;5.694;2022-07-29T10:30:17;9.88;;;4.45;;
46675;SDS011;32412;51.478;5.694;2022-07-29T10:35:47;8.70;;;4.90;;
46675;SDS011;32412;51.478;5.694;2022-07-29T10:38:42;7.22;;;4.65;;
46675;SDS011;32412;51.478;5.694;2022-07-29T10:44:17;5.05;;;4.13;;
46675;SDS011;32412;51.478;5.694;2022-07-29T10:46:45;5.93;;;4.10;;
46675;SDS011;32412;51.478;5.694;2022-07-29T10:49:14;6.80;;;3.50;;
46675;SDS011;32412;51.478;5.694;2022-07-29T10:59:49;4.13;;;3.13;;
46675;SDS011;32412;51.478;5.694;2022-07-29T11:07:28;3.00;;;2.50;;
46675;SDS011;32412;51.478;5.694;2022-07-29T11:10:37;7.18;;;2.90;;
46675;SDS011;32412;51.478;5.694;2022-07-29T11:15:14;4.80;;;2.92;;
46675;SDS011;32412;51.478;5.694;2022-07-29T11:23:19;3.88;;;2.70;;
46675;SDS011;32412;51.478;5.694;2022-07-29T11:28:34;2.58;;;2.38;;
46675;SDS011;32412;51.478;5.694;2022-07-29T11:31:04;5.80;;;2.78;;
46675;SDS011;32412;51.478;5.694;2022-07-29T11:33:32;7.65;;;3.65;;
46675;SDS011;32412;51.478;5.694;2022-07-29T11:36:11;4.88;;;3.63;;
46675;SDS011;32412;51.478;5.694;2022-07-29T11:38:38;7.53;;;3.53;;
46675;SDS011;32412;51.478;5.694;2022-07-29T11:43:46;3.45;;;3.15;;
46675;SDS011;32412;51.478;5.694;2022-07-29T11:46:14;5.97;;;2.97;;
46675;SDS011;32412;51.478;5.694;2022-07-29T11:48:43;6.30;;;3.15;;
46675;SDS011;32412;51.478;5.694;2022-07-29T11:51:10;4.00;;;3.10;;
46675;SDS011;32412;51.478;5.694;2022-07-29T11:53:36;6.00;;;2.40;;
46675;SDS011;32412;51.478;5.694;2022-07-29T11:56:04;4.95;;;2.45;;
46675;SDS011;32412;51.478;5.694;2022-07-29T11:58:32;3.38;;;2.60;;
46675;SDS011;32412;51.478;5.694;2022-07-29T12:01:06;4.47;;;2.35;;
46675;SDS011;32412;51.478;5.694;2022-07-29T12:03:32;7.10;;;2.93;;
46675;SDS011;32412;51.478;5.694;2022-07-29T12:05:59;3.60;;;2.47;;
46675;SDS011;32412;51.478;5.694;2022-07-29T12:08:25;4.35;;;2.90;;
46675;SDS011;32412;51.478;5.694;2022-07-29T12:10:52;5.95;;;3.40;;
46675;SDS011;32412;51.478;5.694;2022-07-29T12:13:18;6.07;;;3.30;;
46675;SDS011;32412;51.478;5.694;2022-07-29T12:15:52;9.23;;;3.58;;
46675;SDS011;32412;51.478;5.694;2022-07-29T12:18:22;3.17;;;2.78;;
46675;SDS011;32412;51.478;5.694;2022-07-29T12:20:48;4.43;;;3.55;;
46675;SDS011;32412;51.478;5.694;2022-07-29T12:23:21;5.03;;;4.00;;
46675;SDS011;32412;51.478;5.694;2022-07-29T12:25:46;7.63;;;3.70;;
46675;SDS011;32412;51.478;5.694;2022-07-29T12:28:13;5.15;;;3.63;;
46675;SDS011;32412;51.478;5.694;2022-07-29T12:30:48;6.05;;;3.60;;
46675;SDS011;32412;51.478;5.694;2022-07-29T12:33:27;4.75;;;3.63;;
46675;SDS011;32412;51.478;5.694;2022-07-29T12:35:56;3.95;;;3.40;;
46675;SDS011;32412;51.478;5.694;2022-07-29T12:38:23;6.43;;;4.53;;
46675;SDS011;32412;51.478;5.694;2022-07-29T12:40:51;6.57;;;4.13;;
46675;SDS011;32412;51.478;5.694;2022-07-29T12:43:19;8.25;;;4.35;;
46675;SDS011;32412;51.478;5.694;2022-07-29T12:45:47;4.90;;;4.40;;
46675;SDS011;32412;51.478;5.694;2022-07-29T12:48:15;5.35;;;3.80;;
46675;SDS011;32412;51.478;5.694;2022-07-29T12:50:56;8.02;;;4.05;;
46675;SDS011;32412;51.478;5.694;2022-07-29T12:53:22;5.05;;;3.70;;
46675;SDS011;32412;51.478;5.694;2022-07-29T12:55:50;4.25;;;3.95;;
46675;SDS011;32412;51.478;5.694;2022-07-29T12:58:30;5.75;;;3.90;;
46675;SDS011;32412;51.478;5.694;2022-07-29T13:03:43;7.40;;;3.83;;
46675;SDS011;32412;51.478;5.694;2022-07-29T13:06:29;4.53;;;4.13;;
46675;SDS011;32412;51.478;5.694;2022-07-29T13:09:11;5.88;;;4.85;;
46675;SDS011;32412;51.478;5.694;2022-07-29T13:14:13;5.93;;;4.30;;
46675;SDS011;32412;51.478;5.694;2022-07-29T13:17:00;4.15;;;3.65;;
46675;SDS011;32412;51.478;5.694;2022-07-29T13:22:00;7.60;;;3.50;;
46675;SDS011;32412;51.478;5.694;2022-07-29T13:24:25;4.32;;;3.42;;
46675;SDS011;32412;51.478;5.694;2022-07-29T13:26:51;5.50;;;3.20;;
46675;SDS011;32412;51.478;5.694;2022-07-29T13:29:17;5.40;;;3.65;;
46675;SDS011;32412;51.478;5.694;2022-07-29T13:31:43;5.22;;;3.45;;
46675;SDS011;32412;51.478;5.694;2022-07-29T13:34:08;7.72;;;3.75;;
46675;SDS011;32412;51.478;5.694;2022-07-29T13:36:34;5.35;;;3.53;;
46675;SDS011;32412;51.478;5.694;2022-07-29T13:39:00;7.38;;;3.30;;
46675;SDS011;32412;51.478;5.694;2022-07-29T13:41:27;4.07;;;3.33;;
46675;SDS011;32412;51.478;5.694;2022-07-29T13:43:53;5.50;;;3.72;;
46675;SDS011;32412;51.478;5.694;2022-07-29T13:46:19;7.93;;;2.85;;
46675;SDS011;32412;51.478;5.694;2022-07-29T13:48:45;7.95;;;4.30;;
46675;SDS011;32412;51.478;5.694;2022-07-29T13:51:11;5.93;;;4.18;;
46675;SDS011;32412;51.478;5.694;2022-07-29T13:53:37;9.52;;;4.07;;
46675;SDS011;32412;51.478;5.694;2022-07-29T13:56:05;8.23;;;3.40;;
46675;SDS011;32412;51.478;5.694;2022-07-29T13:58:31;8.50;;;3.53;;
46675;SDS011;32412;51.478;5.694;2022-07-29T14:01:01;5.80;;;2.78;;
46675;SDS011;32412;51.478;5.694;2022-07-29T14:03:26;4.78;;;3.00;;
46675;SDS011;32412;51.478;5.694;2022-07-29T14:05:55;6.93;;;3.53;;
46675;SDS011;32412;51.478;5.694;2022-07-29T14:08:21;4.47;;;3.75;;
46675;SDS011;32412;51.478;5.694;2022-07-29T14:10:47;4.82;;;3.15;;
46675;SDS011;32412;51.478;5.694;2022-07-29T14:13:12;4.53;;;3.55;;
46675;SDS011;32412;51.478;5.694;2022-07-29T14:15:38;3.25;;;2.92;;
46675;SDS011;32412;51.478;5.694;2022-07-29T14:18:04;6.50;;;3.40;;
46675;SDS011;32412;51.478;5.694;2022-07-29T14:20:30;7.85;;;3.63;;
46675;SDS011;32412;51.478;5.694;2022-07-29T14:22:56;6.70;;;4.03;;
46675;SDS011;32412;51.478;5.694;2022-07-29T14:25:23;7.70;;;3.78;;
46675;SDS011;32412;51.478;5.694;2022-07-29T14:27:48;6.25;;;3.30;;
46675;SDS011;32412;51.478;5.694;2022-07-29T14:30:14;5.53;;;2.72;;
46675;SDS011;32412;51.478;5.694;2022-07-29T14:32:40;5.82;;;3.45;;
46675;SDS011;32412;51.478;5.694;2022-07-29T14:35:06;4.15;;;2.83;;
46675;SDS011;32412;51.478;5.694;2022-07-29T14:37:35;10.00;;;2.72;;
46675;SDS011;32412;51.478;5.694;2022-07-29T14:40:01;6.50;;;2.83;;
46675;SDS011;32412;51.478;5.694;2022-07-29T14:42:29;6.10;;;3.22;;
46675;SDS011;32412;51.478;5.694;2022-07-29T14:44:56;5.22;;;2.35;;
46675;SDS011;32412;51.478;5.694;2022-07-29T14:47:22;2.78;;;2.38;;
46675;SDS011;32412;51.478;5.694;2022-07-29T14:49:49;4.50;;;2.05;;
46675;SDS011;32412;51.478;5.694;2022-07-29T14:52:17;4.30;;;2.25;;
46675;SDS011;32412;51.478;5.694;2022-07-29T14:54:43;4.72;;;2.70;;
46675;SDS011;32412;51.478;5.694;2022-07-29T14:57:12;6.55;;;2.15;;
46675;SDS011;32412;51.478;5.694;2022-07-29T14:59:38;7.53;;;2.67;;
46675;SDS011;32412;51.478;5.694;2022-07-29T15:02:04;7.97;;;2.80;;
46675;SDS011;32412;51.478;5.694;2022-07-29T15:04:30;4.68;;;2.30;;
46675;SDS011;32412;51.478;5.694;2022-07-29T15:06:55;2.70;;;2.30;;
46675;SDS011;32412;51.478;5.694;2022-07-29T15:09:21;6.00;;;2.10;;
46675;SDS011;32412;51.478;5.694;2022-07-29T15:11:47;6.03;;;2.30;;
46675;SDS011;32412;51.478;5.694;2022-07-29T15:14:13;4.07;;;2.28;;
46675;SDS011;32412;51.478;5.694;2022-07-29T15:16:38;3.40;;;2.08;;
46675;SDS011;32412;51.478;5.694;2022-07-29T15:19:05;4.43;;;1.83;;
46675;SDS011;32412;51.478;5.694;2022-07-29T15:21:30;5.03;;;1.88;;
46675;SDS011;32412;51.478;5.694;2022-07-29T15:23:56;4.95;;;2.47;;
46675;SDS011;32412;51.478;5.694;2022-07-29T15:26:22;7.03;;;2.38;;
46675;SDS011;32412;51.478;5.694;2022-07-29T15:28:51;4.22;;;2.20;;
46675;SDS011;32412;51.478;5.694;2022-07-29T15:31:16;5.70;;;2.58;;
46675;SDS011;32412;51.478;5.694;2022-07-29T15:33:43;5.60;;;2.45;;
46675;SDS011;32412;51.478;5.694;2022-07-29T15:36:09;7.32;;;2.83;;
46675;SDS011;32412;51.478;5.694;2022-07-29T15:38:37;5.93;;;2.30;;
46675;SDS011;32412;51.478;5.694;2022-07-29T15:41:07;6.97;;;2.50;;
46675;SDS011;32412;51.478;5.694;2022-07-29T15:43:33;5.15;;;2.47;;
46675;SDS011;32412;51.478;5.694;2022-07-29T15:46:02;5.13;;;2.30;;
46675;SDS011;32412;51.478;5.694;2022-07-29T15:48:46;5.93;;;2.35;;
46675;SDS011;32412;51.478;5.694;2022-07-29T15:51:12;3.35;;;2.10;;
46675;SDS011;32412;51.478;5.694;2022-07-29T15:53:37;7.10;;;2.20;;
46675;SDS011;32412;51.478;5.694;2022-07-29T15:56:06;3.78;;;2.00;;
46675;SDS011;32412;51.478;5.694;2022-07-29T15:58:31;2.65;;;2.10;;